Map

Track Data

SID SEASON NUMBER BASIN SUBBASIN NAME ISO_TIME NATURE LAT LON WMO_WIND WMO_PRES WMO_AGENCY TRACK_TYPE DIST2LAND LANDFALL IFLAG USA_AGENCY USA_ATCF_ID USA_LAT USA_LON USA_RECORD USA_STATUS USA_WIND USA_PRES USA_SSHS USA_R34_NE USA_R34_SE USA_R34_SW USA_R34_NW USA_R50_NE USA_R50_SE USA_R50_SW USA_R50_NW USA_R64_NE USA_R64_SE USA_R64_SW USA_R64_NW USA_POCI USA_ROCI USA_RMW USA_EYE TOKYO_LAT TOKYO_LON TOKYO_GRADE TOKYO_WIND TOKYO_PRES TOKYO_R50_DIR TOKYO_R50_LONG TOKYO_R50_SHORT TOKYO_R30_DIR TOKYO_R30_LONG TOKYO_R30_SHORT TOKYO_LAND CMA_LAT CMA_LON CMA_CAT CMA_WIND CMA_PRES HKO_LAT HKO_LON HKO_CAT HKO_WIND HKO_PRES NEWDELHI_LAT NEWDELHI_LON NEWDELHI_GRADE NEWDELHI_WIND NEWDELHI_PRES NEWDELHI_CI NEWDELHI_DP NEWDELHI_POCI REUNION_LAT REUNION_LON REUNION_TYPE REUNION_WIND REUNION_PRES REUNION_TNUM REUNION_CI REUNION_RMW REUNION_R34_NE REUNION_R34_SE REUNION_R34_SW REUNION_R34_NW REUNION_R50_NE REUNION_R50_SE REUNION_R50_SW REUNION_R50_NW REUNION_R64_NE REUNION_R64_SE REUNION_R64_SW REUNION_R64_NW BOM_LAT BOM_LON BOM_TYPE BOM_WIND BOM_PRES BOM_TNUM BOM_CI BOM_RMW BOM_R34_NE BOM_R34_SE BOM_R34_SW BOM_R34_NW BOM_R50_NE BOM_R50_SE BOM_R50_SW BOM_R50_NW BOM_R64_NE BOM_R64_SE BOM_R64_SW BOM_R64_NW BOM_ROCI BOM_POCI BOM_EYE BOM_POS_METHOD BOM_PRES_METHOD NADI_LAT NADI_LON NADI_CAT NADI_WIND NADI_PRES WELLINGTON_LAT WELLINGTON_LON WELLINGTON_WIND WELLINGTON_PRES DS824_LAT DS824_LON DS824_STAGE DS824_WIND DS824_PRES TD9636_LAT TD9636_LON TD9636_STAGE TD9636_WIND TD9636_PRES TD9635_LAT TD9635_LON TD9635_WIND TD9635_PRES TD9635_ROCI NEUMANN_LAT NEUMANN_LON NEUMANN_CLASS NEUMANN_WIND NEUMANN_PRES MLC_LAT MLC_LON MLC_CLASS MLC_WIND MLC_PRES USA_GUST BOM_GUST BOM_GUST_PER REUNION_GUST REUNION_GUST_PER USA_SEAHGT USA_SEARAD_NE USA_SEARAD_SE USA_SEARAD_SW USA_SEARAD_NW STORM_SPEED STORM_DIR
1908146N21288 1908 20 NA NA NOT_NAMED 1908-05-24 12:00:00 TS 21.0000 -71.7000 30 hurdat_atl main 134 124 O_____________ hurdat_atl AL021908 21.0000 -71.7000 TD 30 -1 8 338
1908146N21288 1908 20 NA NA NOT_NAMED 1908-05-24 15:00:00 TS 21.3551 -71.8548 main 116 112 P_____________ AL021908 21.3551 -71.8548 TD 30 -1 8 338
1908146N21288 1908 20 NA NA NOT_NAMED 1908-05-24 18:00:00 TS 21.7000 -72.0000 30 hurdat_atl main 117 114 O_____________ hurdat_atl AL021908 21.7000 -72.0000 TD 30 -1 7 339
1908146N21288 1908 20 NA NA NOT_NAMED 1908-05-24 21:00:00 TS 22.0349 -72.1353 main 129 129 P_____________ AL021908 22.0349 -72.1353 TD 30 -1 8 338
1908146N21288 1908 20 NA NA NOT_NAMED 1908-05-25 00:00:00 TS 22.4000 -72.3000 30 hurdat_atl main 152 152 O_____________ hurdat_atl AL021908 22.4000 -72.3000 TD 30 -1 9 336
1908146N21288 1908 20 NA NA NOT_NAMED 1908-05-25 03:00:00 TS 22.8499 -72.5200 main 186 186 P_____________ AL021908 22.8499 -72.5200 TD 30 -1 10 333
1908146N21288 1908 20 NA NA NOT_NAMED 1908-05-25 06:00:00 TS 23.3000 -72.8000 30 hurdat_atl main 235 235 O_____________ hurdat_atl AL021908 23.3000 -72.8000 TD 30 -1 10 326
1908146N21288 1908 20 NA NA NOT_NAMED 1908-05-25 09:00:00 TS 23.6650 -73.1277 main 279 279 P_____________ AL021908 23.6650 -73.1277 TD 30 -1 10 317
1908146N21288 1908 20 NA NA NOT_NAMED 1908-05-25 12:00:00 TS 24.0000 -73.5000 30 hurdat_atl main 314 314 O_____________ hurdat_atl AL021908 24.0000 -73.5000 TD 30 -1 10 314
1908146N21288 1908 20 NA NA NOT_NAMED 1908-05-25 15:00:00 TS 24.3500 -73.9001 main 364 344 P_____________ AL021908 24.3500 -73.9001 TD 30 -1 10 314
1908146N21288 1908 20 NA NA NOT_NAMED 1908-05-25 18:00:00 TS 24.7000 -74.3000 30 hurdat_atl main 344 317 O_____________ hurdat_atl AL021908 24.7000 -74.3000 TD 30 -1 10 315
1908146N21288 1908 20 NA NA NOT_NAMED 1908-05-25 21:00:00 TS 25.0574 -74.6651 main 309 290 P_____________ AL021908 25.0574 -74.6651 TD 32 -1 9 318
1908146N21288 1908 20 NA NA NOT_NAMED 1908-05-26 00:00:00 TS 25.4000 -75.0000 35 hurdat_atl main 290 275 O_____________ hurdat_atl AL021908 25.4000 -75.0000 TS 35 0 9 318
1908146N21288 1908 20 NA NA NOT_NAMED 1908-05-26 03:00:00 TS 25.6998 -75.3004 main 275 260 P_____________ AL021908 25.6998 -75.3004 TS 35 0 8 318
1908146N21288 1908 20 NA NA NOT_NAMED 1908-05-26 06:00:00 TS 26.0000 -75.6000 35 hurdat_atl main 260 249 O_____________ hurdat_atl AL021908 26.0000 -75.6000 TS 35 0 9 320
1908146N21288 1908 20 NA NA NOT_NAMED 1908-05-26 09:00:00 TS 26.3573 -75.9201 main 255 245 P_____________ AL021908 26.3573 -75.9201 TS 35 0 9 318
1908146N21288 1908 20 NA NA NOT_NAMED 1908-05-26 12:00:00 TS 26.7000 -76.3000 35 hurdat_atl main 246 239 O_____________ hurdat_atl AL021908 26.7000 -76.3000 TS 35 0 10 308
1908146N21288 1908 20 NA NA NOT_NAMED 1908-05-26 15:00:00 TS 26.9652 -76.7926 main 243 234 P_____________ AL021908 26.9652 -76.7926 TS 35 0 10 299
1908146N21288 1908 20 NA NA NOT_NAMED 1908-05-26 18:00:00 TS 27.2000 -77.3000 35 hurdat_atl main 244 237 O_____________ hurdat_atl AL021908 27.2000 -77.3000 TS 35 0 9 300
1908146N21288 1908 20 NA NA NOT_NAMED 1908-05-26 21:00:00 TS 27.4271 -77.7007 main 237 212 P_____________ AL021908 27.4271 -77.7007 TS 37 0 9 305
1908146N21288 1908 20 NA NA NOT_NAMED 1908-05-27 00:00:00 TS 27.7000 -78.1000 40 hurdat_atl main 212 180 O_____________ hurdat_atl AL021908 27.7000 -78.1000 TS 40 0 10 308
1908146N21288 1908 20 NA NA NOT_NAMED 1908-05-27 03:00:00 TS 28.0629 -78.6295 main 184 136 P_____________ AL021908 28.0629 -78.6295 TS 42 0 12 312
1908146N21288 1908 20 NA NA NOT_NAMED 1908-05-27 06:00:00 TS 28.5000 -79.1000 45 hurdat_atl main 136 120 O_____________ hurdat_atl AL021908 28.5000 -79.1000 TS 45 0 12 325
1908146N21288 1908 20 NA NA NOT_NAMED 1908-05-27 09:00:00 TS 29.0147 -79.3752 main 120 120 P_____________ AL021908 29.0147 -79.3752 TS 47 0 11 341
1908146N21288 1908 20 NA NA NOT_NAMED 1908-05-27 12:00:00 TS 29.5000 -79.5000 50 hurdat_atl main 142 142 O_____________ hurdat_atl AL021908 29.5000 -79.5000 TS 50 0 8 350
1908146N21288 1908 20 NA NA NOT_NAMED 1908-05-27 15:00:00 TS 29.8374 -79.5527 main 148 148 P_____________ AL021908 29.8374 -79.5527 TS 52 0 6 1
1908146N21288 1908 20 NA NA NOT_NAMED 1908-05-27 18:00:00 TS 30.1000 -79.5000 55 hurdat_atl main 172 172 O_____________ hurdat_atl AL021908 30.1000 -79.5000 TS 55 0 5 16
1908146N21288 1908 20 NA NA NOT_NAMED 1908-05-27 21:00:00 TS 30.3500 -79.3800 main 194 194 P_____________ AL021908 30.3500 -79.3800 TS 57 0 6 28
1908146N21288 1908 20 NA NA NOT_NAMED 1908-05-28 00:00:00 TS 30.6000 -79.2000 60 hurdat_atl main 210 209 O_____________ hurdat_atl AL021908 30.6000 -79.2000 TS 60 0 6 30
1908146N21288 1908 20 NA NA NOT_NAMED 1908-05-28 03:00:00 TS 30.9000 -79.0150 main 211 192 P_____________ AL021908 30.9000 -79.0150 TS 62 0 7 30
1908146N21288 1908 20 NA NA NOT_NAMED 1908-05-28 06:00:00 TS 31.2000 -78.8000 65 hurdat_atl main 192 187 O_____________ hurdat_atl AL021908 31.2000 -78.8000 HU 65 1 7 36
1908146N21288 1908 20 NA NA NOT_NAMED 1908-05-28 09:00:00 TS 31.4500 -78.5499 main 186 177 P_____________ AL021908 31.4500 -78.5499 HU 65 1 7 40
1908146N21288 1908 20 NA NA NOT_NAMED 1908-05-28 12:00:00 TS 31.7000 -78.3000 65 hurdat_atl main 177 165 O_____________ hurdat_atl AL021908 31.7000 -78.3000 HU 65 1 7 35
1908146N21288 1908 20 NA NA NOT_NAMED 1908-05-28 15:00:00 TS 31.9999 -78.0998 main 165 157 P_____________ AL021908 31.9999 -78.0998 HU 65 1 7 30
1908146N21288 1908 20 NA NA NOT_NAMED 1908-05-28 18:00:00 TS 32.3000 -77.9000 65 hurdat_atl main 157 152 O_____________ hurdat_atl AL021908 32.3000 -77.9000 HU 65 1 7 35
1908146N21288 1908 20 NA NA NOT_NAMED 1908-05-28 21:00:00 TS 32.5500 -77.6499 main 149 134 P_____________ AL021908 32.5500 -77.6499 HU 65 1 7 40
1908146N21288 1908 20 NA NA NOT_NAMED 1908-05-29 00:00:00 TS 32.8000 -77.4000 65 hurdat_atl main 134 115 O_____________ hurdat_atl AL021908 32.8000 -77.4000 HU 65 1 7 35
1908146N21288 1908 20 NA NA NOT_NAMED 1908-05-29 03:00:00 TS 33.0924 -77.1998 main 115 106 P_____________ AL021908 33.0924 -77.1998 HU 65 1 7 29
1908146N21288 1908 20 NA NA NOT_NAMED 1908-05-29 06:00:00 TS 33.4000 -77.0000 65 hurdat_atl main 107 102 O_____________ hurdat_atl AL021908 33.4000 -77.0000 HU 65 1 7 31
1908146N21288 1908 20 NA NA NOT_NAMED 1908-05-29 09:00:00 TS 33.6849 -76.7721 main 104 78 P_____________ AL021908 33.6849 -76.7721 HU 65 1 7 35
1908146N21288 1908 20 NA NA NOT_NAMED 1908-05-29 12:00:00 TS 34.0000 -76.5000 65 hurdat_atl main 78 43 O_____________ hurdat_atl AL021908 34.0000 -76.5000 HU 65 1 9 37
1908146N21288 1908 20 NA NA NOT_NAMED 1908-05-29 15:00:00 TS 34.3865 -76.1333 main 49 42 P_____________ AL021908 34.3865 -76.1333 HU 65 1 10 36
1908146N21288 1908 20 NA NA NOT_NAMED 1908-05-29 18:00:00 TS 34.8000 -75.8000 65 989 hurdat_atl main 46 45 O_____________ hurdat_atl AL021908 34.8000 -75.8000 HU 65 989 1 9 28
1908146N21288 1908 20 NA NA NOT_NAMED 1908-05-29 21:00:00 TS 35.2000 -75.6000 65 989 hurdat_atl main 45 35 O_____________ hurdat_atl AL021908 35.2000 -75.6000 L HU 65 989 1 10 36
1908146N21288 1908 20 NA NA NOT_NAMED 1908-05-30 00:00:00 TS 35.6000 -75.1000 65 hurdat_atl main 42 42 O_____________ hurdat_atl AL021908 35.6000 -75.1000 HU 65 1 10 41
1908146N21288 1908 20 NA NA NOT_NAMED 1908-05-30 03:00:00 TS 35.9394 -74.8046 main 63 63 P_____________ AL021908 35.9394 -74.8046 HU 62 0 8 30
1908146N21288 1908 20 NA NA NOT_NAMED 1908-05-30 06:00:00 TS 36.3000 -74.6000 60 hurdat_atl main 95 95 O_____________ hurdat_atl AL021908 36.3000 -74.6000 TS 60 0 8 26
1908146N21288 1908 20 NA NA NOT_NAMED 1908-05-30 09:00:00 TS 36.6948 -74.3354 main 136 136 P_____________ AL021908 36.6948 -74.3354 TS 55 0 11 26
1908146N21288 1908 20 NA NA NOT_NAMED 1908-05-30 12:00:00 TS 37.3000 -74.0000 50 hurdat_atl main 143 126 O_____________ hurdat_atl AL021908 37.3000 -74.0000 TS 50 0 17 22
1908146N21288 1908 20 NA NA NOT_NAMED 1908-05-30 15:00:00 TS 38.2547 -73.5457 main 136 104 P_____________ AL021908 38.2547 -73.5457 TS 45 0 22 21
1908146N21288 1908 20 NA NA NOT_NAMED 1908-05-30 18:00:00 TS 39.4000 -73.0000 40 hurdat_atl main 107 45 O_____________ hurdat_atl AL021908 39.4000 -73.0000 TS 40 0 23 21
1908146N21288 1908 20 NA NA NOT_NAMED 1908-05-30 21:00:00 TS 40.4480 -72.4757 main 45 0 P_____________ AL021908 40.4480 -72.4757 TS 37 0 25 22
1908146N21288 1908 20 NA NA NOT_NAMED 1908-05-30 23:00:00 TS 41.3000 -72.0000 35 hurdat_atl main 0 0 O_____________ hurdat_atl AL021908 41.3000 -72.0000 L TS 35 0 29 23
1908146N21288 1908 20 NA NA NOT_NAMED 1908-05-31 00:00:00 TS 41.8000 -71.7000 35 hurdat_atl main 0 0 O_____________ hurdat_atl AL021908 41.8000 -71.7000 TS 35 0 27 26
1908146N21288 1908 20 NA NA NOT_NAMED 1908-05-31 03:00:00 TS 42.9523 -70.9362 main 0 0 P_____________ AL021908 42.9523 -70.9362 TS 35 0 22 27
1908146N21288 1908 20 NA NA NOT_NAMED 1908-05-31 06:00:00 ET 43.8000 -70.3000 35 hurdat_atl main 0 0 O_____________ hurdat_atl AL021908 43.8000 -70.3000 EX 35 -4 20 28
1908146N21288 1908 20 NA NA NOT_NAMED 1908-05-31 09:00:00 ET 44.7325 -69.5979 main 0 0 P_____________ AL021908 44.7325 -69.5979 EX 35 -4 19 29
1908146N21288 1908 20 NA NA NOT_NAMED 1908-05-31 12:00:00 ET 45.5000 -69.0000 35 hurdat_atl main 0 0 O_____________ hurdat_atl AL021908 45.5000 -69.0000 EX 35 -4 15 29
1908146N21288 1908 20 NA NA NOT_NAMED 1908-05-31 15:00:00 ET 46.0223 -68.5917 main 0 0 P_____________ AL021908 46.0223 -68.5917 EX 35 -4 10 28
1908146N21288 1908 20 NA NA NOT_NAMED 1908-05-31 18:00:00 ET 46.4000 -68.3000 35 hurdat_atl main 0 O_____________ hurdat_atl AL021908 46.4000 -68.3000 EX 35 -4 9 28

About IBTrACS Database

This database is a web-friendly format of International Best Track Archive for Climate Stewardship (IBTrACS), a global best track data archive curated by NOAA dating back to 1842.

Updated: 2021-12-08